Time;durP1;ratioP1;P1;durP2;ratioP2;P2;SDS_P1;SDS_P2;PMS_P1;PMS_P2;Temp;Humidity;BMP_temperature;BMP_pressure;BME280_temperature;BME280_humidity;BME280_pressure;Samples;Min_cycle;Max_cycle;Signal;HPM_P1;HPM_P2
2023/08/21 00:00:28;;;;;;;5.03;1.40;;;;;;;15.68;100.00;102168.91;1047737;28;20057;-53
2023/08/21 00:01:04;;;;;;;2.72;0.90;;;;;;;15.71;100.00;102171.16;1049370;28;20045;-54
2023/08/21 00:01:37;;;;;;;3.40;1.27;;;;;;;15.80;100.00;102169.03;1049214;28;20047;-54
2023/08/21 00:02:11;;;;;;;5.75;1.25;;;;;;;15.88;100.00;102173.28;1048926;28;20127;-53
2023/08/21 00:02:43;;;;;;;2.60;1.10;;;;;;;15.97;100.00;102177.38;1048552;28;20048;-53
2023/08/21 00:03:15;;;;;;;2.58;1.00;;;;;;;16.00;100.00;102174.25;1048412;28;20450;-53
2023/08/21 00:03:47;;;;;;;2.08;1.00;;;;;;;16.08;100.00;102182.03;1048428;28;20041;-53
2023/08/21 00:04:19;;;;;;;1.30;1.02;;;;;;;16.11;100.00;102178.91;1048313;28;20498;-53
2023/08/21 00:04:50;;;;;;;2.85;1.00;;;;;;;16.18;100.00;102171.63;1048663;28;20044;-55
2023/08/21 00:05:22;;;;;;;3.40;1.33;;;;;;;16.31;100.00;102182.22;1048327;28;20618;-55
2023/08/21 00:05:53;;;;;;;2.97;1.40;;;;;;;16.38;100.00;102176.78;1048449;28;20044;-54
2023/08/21 00:06:25;;;;;;;4.72;1.48;;;;;;;16.39;100.00;102173.88;1048505;28;20043;-54
2023/08/21 00:06:56;;;;;;;5.03;1.50;;;;;;;16.44;100.00;102172.41;1048347;28;20162;-55
2023/08/21 00:07:28;;;;;;;12.60;1.95;;;;;;;16.38;100.00;102177.59;1048506;28;20045;-54
2023/08/21 00:08:00;;;;;;;3.00;1.17;;;;;;;16.20;100.00;102174.09;1048498;28;20102;-55
2023/08/21 00:08:31;;;;;;;2.22;0.98;;;;;;;16.01;100.00;102175.88;1048361;28;20098;-54
2023/08/21 00:09:03;;;;;;;2.85;1.15;;;;;;;16.07;100.00;102177.69;1049175;28;20494;-53
2023/08/21 00:09:42;;;;;;;4.25;1.10;;;;;;;16.26;100.00;102179.38;1048900;28;20041;-55
2023/08/21 00:10:14;;;;;;;2.22;1.30;;;;;;;16.34;100.00;102171.03;1048307;28;20047;-52
2023/08/21 00:10:48;;;;;;;3.22;1.00;;;;;;;16.43;100.00;102168.03;1049087;28;20494;-54
2023/08/21 00:11:20;;;;;;;7.75;1.27;;;;;;;16.53;100.00;102174.56;1048004;28;20535;-55
2023/08/21 00:11:52;;;;;;;3.47;1.88;;;;;;;16.62;100.00;102173.22;1048184;28;20387;-55
2023/08/21 00:12:23;;;;;;;8.40;1.25;;;;;;;16.75;100.00;102174.16;1048797;28;20036;-53
2023/08/21 00:12:55;;;;;;;8.32;1.85;;;;;;;16.85;100.00;102171.75;1048118;28;20045;-53
2023/08/21 00:13:27;;;;;;;7.30;1.48;;;;;;;16.89;100.00;102175.66;1048465;28;20174;-53
2023/08/21 00:13:58;;;;;;;2.10;1.27;;;;;;;16.85;100.00;102171.75;1048398;28;20040;-53
2023/08/21 00:14:30;;;;;;;2.75;0.98;;;;;;;16.66;100.00;102171.75;1049464;28;20509;-54
2023/08/21 00:15:05;;;;;;;1.40;1.27;;;;;;;16.65;100.00;102177.34;1048598;28;20047;-53
2023/08/21 00:15:38;;;;;;;2.60;1.27;;;;;;;16.54;100.00;102176.22;1048632;28;20406;-53
2023/08/21 00:16:11;;;;;;;9.20;1.50;;;;;;;16.67;100.00;102177.97;1048244;28;20398;-53
2023/08/21 00:16:43;;;;;;;1.30;1.20;;;;;;;16.64;100.00;102181.06;1047917;28;20414;-52
2023/08/21 00:17:14;;;;;;;2.10;1.65;;;;;;;16.54;100.00;102175.41;1048599;28;20043;-53
2023/08/21 00:17:47;;;;;;;2.72;1.35;;;;;;;16.39;100.00;102173.88;1048085;28;20046;-53
2023/08/21 00:18:18;;;;;;;4.68;1.73;;;;;;;16.09;100.00;102172.91;1048434;28;20247;-54
2023/08/21 00:18:53;;;;;;;4.57;1.67;;;;;;;15.89;100.00;102177.66;1049545;28;20069;-53
2023/08/21 00:19:27;;;;;;;6.70;1.27;;;;;;;15.86;100.00;102178.06;1040330;28;20056;-53
2023/08/21 00:19:59;;;;;;;2.28;1.10;;;;;;;15.93;100.00;102173.47;1039697;28;20411;-54
2023/08/21 00:20:30;;;;;;;4.18;1.25;;;;;;;15.92;100.00;102178.03;1040880;28;20531;-53
2023/08/21 00:21:05;;;;;;;3.17;0.90;;;;;;;16.05;100.00;102177.09;1045537;28;20041;-53
2023/08/21 00:21:36;;;;;;;6.45;1.90;;;;;;;16.12;100.00;102171.66;1048273;28;20079;-53
2023/08/21 00:22:10;;;;;;;5.70;1.73;;;;;;;16.25;100.00;102174.25;1048017;28;20125;-54
2023/08/21 00:22:42;;;;;;;2.17;1.13;;;;;;;16.19;100.00;102170.56;1048353;28;20045;-53
2023/08/21 00:23:14;;;;;;;4.05;1.80;;;;;;;16.36;100.00;102168.13;1048301;28;20064;-53
2023/08/21 00:23:46;;;;;;;5.47;1.92;;;;;;;16.47;100.00;102169.28;1048251;28;20044;-53
2023/08/21 00:24:18;;;;;;;5.75;1.45;;;;;;;16.49;100.00;102173.38;1048207;28;20098;-54
2023/08/21 00:24:49;;;;;;;2.75;1.35;;;;;;;16.56;100.00;102165.22;1048430;28;20046;-53
2023/08/21 00:25:22;;;;;;;1.77;1.20;;;;;;;16.60;100.00;102169.13;1048251;28;20036;-54
2023/08/21 00:25:53;;;;;;;4.72;1.08;;;;;;;16.62;100.00;102172.41;1048110;28;20041;-53
2023/08/21 00:26:25;;;;;;;2.25;1.27;;;;;;;16.77;100.00;102170.22;1048414;28;20048;-53
2023/08/21 00:26:56;;;;;;;2.80;1.15;;;;;;;16.89;100.00;102165.69;1048140;28;20037;-54
2023/08/21 00:27:28;;;;;;;1.17;0.90;;;;;;;16.99;100.00;102168.69;1048133;28;20391;-53
2023/08/21 00:28:00;;;;;;;1.70;1.10;;;;;;;17.06;100.00;102167.78;1048080;28;20641;-53
2023/08/21 00:28:33;;;;;;;5.75;1.52;;;;;;;17.10;100.00;102168.97;1048312;28;20036;-53
2023/08/21 00:29:05;;;;;;;2.35;1.08;;;;;;;17.09;100.00;102170.84;1047717;28;20439;-53
2023/08/21 00:29:37;;;;;;;6.72;2.10;;;;;;;17.12;100.00;102170.38;1048217;28;20036;-54
2023/08/21 00:30:09;;;;;;;3.95;1.50;;;;;;;17.09;100.00;102176.22;1048303;28;20033;-53
2023/08/21 00:30:41;;;;;;;13.90;2.08;;;;;;;17.12;100.00;102166.88;1043617;28;20152;-53
2023/08/21 00:31:13;;;;;;;3.40;1.23;;;;;;;17.07;100.00;102170.25;1040212;28;20045;-53
2023/08/21 00:31:45;;;;;;;3.15;1.45;;;;;;;16.90;100.00;102170.03;1039656;28;20041;-53
2023/08/21 00:32:19;;;;;;;9.27;1.40;;;;;;;16.81;100.00;102165.19;1040273;28;20038;-53
2023/08/21 00:32:51;;;;;;;5.30;1.17;;;;;;;16.77;100.00;102167.50;1044599;28;20408;-54
2023/08/21 00:33:24;;;;;;;2.95;1.30;;;;;;;16.79;100.00;102173.50;1044537;28;20395;-53
2023/08/21 00:33:55;;;;;;;1.63;0.93;;;;;;;16.77;100.00;102167.50;1044111;28;20037;-54
2023/08/21 00:34:27;;;;;;;6.03;1.27;;;;;;;16.76;100.00;102167.75;1043770;28;20056;-53
2023/08/21 00:34:58;;;;;;;6.68;1.65;;;;;;;16.74;100.00;102170.66;1043961;28;20041;-53
2023/08/21 00:35:30;;;;;;;5.03;1.13;;;;;;;16.75;100.00;102172.31;1039728;28;20049;-53
2023/08/21 00:36:02;;;;;;;3.75;1.48;;;;;;;16.71;100.00;102168.41;1043983;28;20037;-53
2023/08/21 00:36:33;;;;;;;3.17;1.38;;;;;;;16.72;100.00;102167.38;1047628;28;20052;-53
2023/08/21 00:37:05;;;;;;;2.95;2.13;;;;;;;16.60;100.00;102174.50;1043202;28;20072;-53
2023/08/21 00:37:37;;;;;;;2.50;1.02;;;;;;;16.75;100.00;102172.31;1039365;28;20495;-53
2023/08/21 00:38:08;;;;;;;3.17;0.90;;;;;;;16.86;100.00;102176.91;1037670;28;20042;-53
2023/08/21 00:38:40;;;;;;;2.90;1.17;;;;;;;16.84;100.00;102165.56;1039786;28;20041;-54
2023/08/21 00:39:12;;;;;;;2.05;1.20;;;;;;;16.98;100.00;102167.06;1039864;28;20045;-53
2023/08/21 00:39:44;;;;;;;3.28;1.33;;;;;;;16.93;100.00;102171.44;1044677;28;20539;-54
2023/08/21 00:40:16;;;;;;;6.30;1.30;;;;;;;16.94;100.00;102165.84;1045546;28;20037;-52
2023/08/21 00:40:47;;;;;;;1.83;0.88;;;;;;;16.95;100.00;102166.66;1048205;28;20044;-54
2023/08/21 00:41:20;;;;;;;2.28;1.13;;;;;;;16.92;100.00;102161.72;1048508;28;20079;-52
2023/08/21 00:41:51;;;;;;;4.25;1.05;;;;;;;17.08;100.00;102171.06;1047975;28;20529;-52
2023/08/21 00:42:23;;;;;;;4.68;1.40;;;;;;;17.08;100.00;102171.06;1047743;28;20462;-53
2023/08/21 00:42:56;;;;;;;2.95;1.17;;;;;;;16.96;100.00;102171.81;1048046;28;20651;-54
2023/08/21 00:43:27;;;;;;;4.32;1.08;;;;;;;16.87;100.00;102164.28;1049079;28;20126;-54
2023/08/21 00:43:59;;;;;;;1.85;1.38;;;;;;;16.97;100.00;102175.34;1044594;28;20044;-55
2023/08/21 00:44:31;;;;;;;6.20;1.35;;;;;;;17.01;100.00;102165.78;1043297;28;20084;-55
2023/08/21 00:45:03;;;;;;;1.30;1.13;;;;;;;16.65;100.00;102172.78;1044032;28;20049;-54
2023/08/21 00:45:38;;;;;;;2.80;1.33;;;;;;;16.32;100.00;102167.75;1040399;28;20042;-55
2023/08/21 00:46:10;;;;;;;3.22;1.30;;;;;;;16.57;100.00;102164.19;1040590;28;20046;-55
2023/08/21 00:46:50;;;;;;;5.57;1.70;;;;;;;16.59;100.00;102164.78;1043740;28;20045;-55
2023/08/21 00:47:22;;;;;;;1.27;0.77;;;;;;;16.62;100.00;102161.63;1041550;28;20048;-54
2023/08/21 00:47:56;;;;;;;6.25;1.33;;;;;;;16.27;100.00;102159.53;1041672;28;20097;-53
2023/08/21 00:48:31;;;;;;;11.18;1.42;;;;;;;16.45;100.00;102165.97;1044129;28;20446;-53
2023/08/21 00:49:05;;;;;;;24.25;2.30;;;;;;;16.75;100.00;102158.84;1039799;28;20431;-53
2023/08/21 00:49:39;;;;;;;8.70;2.25;;;;;;;16.66;100.00;102154.78;1036646;28;20049;-53
2023/08/21 00:50:14;;;;;;;7.90;1.58;;;;;;;16.58;100.00;102163.13;1035981;28;20034;-54
2023/08/21 00:50:46;;;;;;;4.63;1.13;;;;;;;16.38;100.00;102156.09;1035037;28;20042;-53
2023/08/21 00:51:18;;;;;;;3.70;1.05;;;;;;;16.33;100.00;102158.63;1042192;28;20034;-53
2023/08/21 00:51:51;;;;;;;6.28;1.35;;;;;;;16.25;100.00;102163.47;1047876;28;20118;-53
2023/08/21 00:52:24;;;;;;;4.03;1.90;;;;;;;16.22;100.00;102162.06;1048422;28;20078;-54
2023/08/21 00:52:58;;;;;;;6.55;1.55;;;;;;;16.46;100.00;102163.06;1046452;28;20103;-55
2023/08/21 00:53:30;;;;;;;3.28;1.17;;;;;;;16.44;100.00;102159.78;1048344;28;20041;-55
2023/08/21 00:54:01;;;;;;;5.35;1.40;;;;;;;16.62;100.00;102161.63;1048095;28;20044;-54
2023/08/21 00:54:37;;;;;;;1.73;1.13;;;;;;;16.56;100.00;102166.06;1049476;28;20098;-54
2023/08/21 00:55:15;;;;;;;3.00;1.48;;;;;;;16.53;100.00;102166.50;1043733;28;20107;-54
2023/08/21 00:55:47;;;;;;;4.20;1.30;;;;;;;16.57;100.00;102164.19;1039901;28;20034;-55
2023/08/21 00:56:19;;;;;;;4.95;1.52;;;;;;;16.47;100.00;102166.59;1044620;28;20044;-54
2023/08/21 00:56:52;;;;;;;3.55;1.60;;;;;;;16.58;100.00;102171.22;1043559;28;20517;-55
2023/08/21 00:57:24;;;;;;;4.85;1.35;;;;;;;16.69;100.00;102162.41;1044078;28;20052;-54
2023/08/21 00:57:56;;;;;;;5.50;1.17;;;;;;;16.59;100.00;102167.47;1044422;28;20411;-54
2023/08/21 00:58:27;;;;;;;3.97;1.40;;;;;;;16.63;100.00;102168.66;1040134;28;20053;-55
2023/08/21 00:58:59;;;;;;;6.25;1.42;;;;;;;16.68;100.00;102166.16;1039838;28;20045;-55
2023/08/21 00:59:31;;;;;;;2.10;1.05;;;;;;;16.69;100.00;102168.63;1035451;28;20466;-54
2023/08/21 01:00:04;;;;;;;4.40;1.52;;;;;;;16.68;100.00;102160.78;1036028;28;20049;-54
2023/08/21 01:00:36;;;;;;;9.18;1.33;;;;;;;16.83;100.00;102172.00;1037154;28;20050;-55
2023/08/21 01:01:07;;;;;;;2.45;0.98;;;;;;;16.95;100.00;102166.66;1038689;28;20087;-55
2023/08/21 01:01:40;;;;;;;1.10;1.02;;;;;;;17.06;100.00;102176.69;1035477;28;20128;-55
2023/08/21 01:02:11;;;;;;;0.93;0.80;;;;;;;16.88;100.00;102169.44;1036117;28;20041;-54
2023/08/21 01:02:43;;;;;;;2.00;1.33;;;;;;;16.82;100.00;102164.16;1041956;28;20038;-52
2023/08/21 01:03:17;;;;;;;2.95;1.00;;;;;;;16.78;100.00;102169.16;1045701;28;20048;-54
2023/08/21 01:03:49;;;;;;;4.97;0.88;;;;;;;16.93;100.00;102171.44;1044016;28;20052;-55
2023/08/21 01:04:21;;;;;;;9.07;1.48;;;;;;;17.05;100.00;102171.53;1043551;28;20546;-54
2023/08/21 01:04:53;;;;;;;5.25;1.40;;;;;;;17.09;100.00;102168.16;1044935;28;20041;-53
2023/08/21 01:05:27;;;;;;;4.88;1.25;;;;;;;17.11;100.00;102170.63;1047987;28;20095;-53
2023/08/21 01:05:59;;;;;;;9.65;2.30;;;;;;;17.03;100.00;102162.84;1047781;28;20048;-52
2023/08/21 01:06:31;;;;;;;7.22;1.75;;;;;;;16.99;100.00;102167.88;1048945;28;20063;-53
2023/08/21 01:07:09;;;;;;;7.60;1.20;;;;;;;17.01;100.00;102170.34;1044015;28;20538;-54
2023/08/21 01:08:03;;;;;;;4.03;1.23;;;;;;;16.88;100.00;102155.97;1040723;28;20034;-53
2023/08/21 01:08:48;;;;;;;5.82;1.35;;;;;;;16.55;100.00;102168.97;1043749;28;20045;-53
2023/08/21 01:09:29;;;;;;;3.45;2.10;;;;;;;16.62;100.00;102167.84;1040382;28;20037;-53
2023/08/21 01:10:09;;;;;;;2.05;1.02;;;;;;;16.76;100.00;102163.19;1039938;28;20056;-53
2023/08/21 01:10:56;;;;;;;3.92;1.15;;;;;;;17.04;100.00;102162.63;1039601;28;20049;-53
2023/08/21 01:11:53;;;;;;;6.85;1.67;;;;;;;17.28;100.00;102158.19;1043695;28;20494;-54
2023/08/21 01:12:37;;;;;;;4.75;1.30;;;;;;;17.37;100.00;102159.50;1042715;28;20060;-53
2023/08/21 01:13:21;;;;;;;5.90;1.13;;;;;;;17.16;100.00;102152.72;1036693;28;20042;-54
2023/08/21 01:14:02;;;;;;;4.68;1.23;;;;;;;16.89;100.00;102151.41;1035478;28;20069;-53
2023/08/21 01:14:35;;;;;;;5.25;1.27;;;;;;;16.79;100.00;102151.97;1035379;28;20591;-53
2023/08/21 01:15:09;;;;;;;7.38;1.25;;;;;;;16.62;100.00;102153.56;1038470;28;20034;-53
2023/08/21 01:15:42;;;;;;;2.70;1.30;;;;;;;16.48;100.00;102152.09;1037628;28;20053;-51
2023/08/21 01:16:14;;;;;;;5.55;1.30;;;;;;;16.25;100.00;102155.41;1040304;28;20052;-53
2023/08/21 01:16:47;;;;;;;2.92;1.13;;;;;;;16.25;100.00;102153.53;1040710;28;20045;-53
2023/08/21 01:17:19;;;;;;;10.38;1.65;;;;;;;16.50;100.00;102156.19;1040391;28;20049;-53
2023/08/21 01:17:52;;;;;;;1.75;0.90;;;;;;;16.41;100.00;102159.38;1039517;28;20061;-52
2023/08/21 01:18:24;;;;;;;7.53;2.10;;;;;;;16.49;100.00;102153.72;1040085;28;20562;-53
2023/08/21 01:18:57;;;;;;;2.78;1.27;;;;;;;16.59;100.00;102156.72;1040394;28;20042;-53
2023/08/21 01:19:40;;;;;;;1.83;1.00;;;;;;;16.78;100.00;102158.41;1044483;28;20044;-54
2023/08/21 01:20:12;;;;;;;3.22;1.33;;;;;;;16.98;100.00;102156.28;1039794;28;20049;-53
2023/08/21 01:20:44;;;;;;;7.22;1.20;;;;;;;17.04;100.00;102164.50;1043266;28;20053;-53
2023/08/21 01:21:16;;;;;;;3.90;1.40;;;;;;;16.98;100.00;102156.28;1043566;28;20111;-53
2023/08/21 01:21:48;;;;;;;2.60;1.50;;;;;;;16.95;100.00;102156.72;1044562;28;20044;-52
2023/08/21 01:22:19;;;;;;;8.95;1.35;;;;;;;16.89;100.00;102157.63;1043479;28;20114;-53
2023/08/21 01:22:52;;;;;;;6.32;1.27;;;;;;;16.83;100.00;102152.34;1043782;28;20053;-54
2023/08/21 01:23:29;;;;;;;2.60;1.65;;;;;;;17.08;100.00;102155.75;1043766;28;20051;-53
2023/08/21 01:24:01;;;;;;;11.10;1.85;;;;;;;17.19;100.00;102154.13;1045138;28;20037;-53
2023/08/21 01:24:33;;;;;;;4.60;1.20;;;;;;;17.25;100.00;102153.22;1048160;28;20411;-53
2023/08/21 01:25:05;;;;;;;3.67;1.17;;;;;;;17.29;100.00;102154.44;1047504;28;20098;-52
2023/08/21 01:25:37;;;;;;;7.40;1.17;;;;;;;17.29;100.00;102144.47;1047666;28;20048;-53
2023/08/21 01:26:09;;;;;;;5.38;1.05;;;;;;;17.29;100.00;102147.16;1048155;28;20041;-54
2023/08/21 01:26:41;;;;;;;10.90;1.55;;;;;;;17.27;100.00;102149.28;1047078;28;20037;-53
2023/08/21 01:27:14;;;;;;;7.95;1.23;;;;;;;17.26;100.00;102149.50;1047683;28;20049;-53
2023/08/21 01:27:48;;;;;;;3.92;1.35;;;;;;;17.26;100.00;102144.13;1048006;28;20040;-53
2023/08/21 01:28:20;;;;;;;4.40;1.30;;;;;;;17.25;100.00;102150.53;1043624;28;20048;-53
2023/08/21 01:28:52;;;;;;;6.65;1.42;;;;;;;17.26;100.00;102152.19;1040638;28;20049;-54
2023/08/21 01:29:23;;;;;;;3.67;2.25;;;;;;;17.29;100.00;102151.75;1043498;28;20959;-53
2023/08/21 01:29:55;;;;;;;5.05;1.25;;;;;;;17.33;100.00;102150.22;1043935;28;20052;-53
2023/08/21 01:30:28;;;;;;;1.50;1.00;;;;;;;17.29;100.00;102146.34;1039816;28;20373;-53
2023/08/21 01:31:08;;;;;;;2.10;1.02;;;;;;;17.12;100.00;102150.72;1035771;28;20172;-53
2023/08/21 01:31:47;;;;;;;6.28;1.63;;;;;;;16.94;100.00;102155.06;1035330;28;20045;-53
2023/08/21 01:32:21;;;;;;;1.60;1.50;;;;;;;16.79;100.00;102151.16;1038306;28;20528;-53
2023/08/21 01:33:06;;;;;;;1.15;0.85;;;;;;;16.69;100.00;102157.03;1042335;28;20120;-54
2023/08/21 01:33:54;;;;;;;2.13;0.93;;;;;;;16.67;100.00;102153.75;1044769;28;20052;-55
2023/08/21 01:34:26;;;;;;;2.53;1.23;;;;;;;16.66;100.00;102155.63;1039778;28;20033;-54
2023/08/21 01:34:59;;;;;;;9.07;1.10;;;;;;;16.56;100.00;102157.97;1039609;28;20088;-55
2023/08/21 01:35:31;;;;;;;2.05;1.33;;;;;;;16.56;100.00;102157.97;1039079;28;20038;-54
2023/08/21 01:36:05;;;;;;;3.67;1.00;;;;;;;16.52;100.00;102156.78;1041691;28;20072;-54
2023/08/21 01:36:37;;;;;;;4.68;0.93;;;;;;;16.47;100.00;102158.50;1047967;28;20048;-53
2023/08/21 01:37:14;;;;;;;5.80;0.98;;;;;;;16.27;100.00;102161.41;1047638;28;20040;-54
2023/08/21 01:37:46;;;;;;;2.55;1.50;;;;;;;16.30;100.00;102159.06;1043539;28;20075;-55
2023/08/21 01:38:18;;;;;;;3.95;1.20;;;;;;;16.32;100.00;102157.00;1043459;28;20145;-55
2023/08/21 01:38:50;;;;;;;5.60;1.15;;;;;;;16.49;100.00;102159.09;1043649;28;20118;-54
2023/08/21 01:39:23;;;;;;;2.90;1.25;;;;;;;16.53;100.00;102158.44;1045228;28;20045;-55
2023/08/21 01:39:57;;;;;;;2.88;1.00;;;;;;;16.46;100.00;102157.69;1047508;28;20458;-54
2023/08/21 01:40:29;;;;;;;2.35;1.30;;;;;;;16.51;100.00;102165.91;1048152;28;20041;-55
2023/08/21 01:41:03;;;;;;;1.90;1.05;;;;;;;16.68;100.00;102158.06;1047309;28;20036;-55
2023/08/21 01:41:37;;;;;;;4.15;1.48;;;;;;;16.70;100.00;102155.97;1042925;28;20052;-55
2023/08/21 01:42:08;;;;;;;2.28;1.05;;;;;;;16.48;100.00;102162.84;1040058;28;20128;-54
2023/08/21 01:42:40;;;;;;;2.03;1.50;;;;;;;16.57;100.00;102164.19;1043764;28;20044;-54
2023/08/21 01:43:11;;;;;;;3.28;1.17;;;;;;;16.67;100.00;102164.50;1045635;28;20502;-54
2023/08/21 01:43:43;;;;;;;3.33;1.40;;;;;;;16.76;100.00;102165.06;1047516;28;20410;-55
2023/08/21 01:44:15;;;;;;;6.82;1.55;;;;;;;16.73;100.00;102163.63;1043429;28;20048;-53
2023/08/21 01:44:46;;;;;;;4.07;1.33;;;;;;;16.54;100.00;102159.25;1039086;28;20041;-54
2023/08/21 01:45:18;;;;;;;2.72;1.45;;;;;;;16.60;100.00;102155.66;1039785;28;20402;-55
2023/08/21 01:45:50;;;;;;;2.67;1.65;;;;;;;16.51;100.00;102159.72;1044012;28;20051;-54
2023/08/21 01:46:22;;;;;;;4.18;1.35;;;;;;;16.49;100.00;102164.50;1044084;28;20111;-54
2023/08/21 01:46:53;;;;;;;2.53;1.45;;;;;;;16.49;100.00;102161.81;1048617;28;20041;-55
2023/08/21 01:47:25;;;;;;;3.30;1.23;;;;;;;16.46;100.00;102160.38;1043685;28;20099;-55
2023/08/21 01:47:57;;;;;;;2.85;2.00;;;;;;;16.47;100.00;102159.34;1043547;28;20033;-54
2023/08/21 01:48:29;;;;;;;1.83;1.10;;;;;;;16.47;100.00;102158.50;1043803;28;20059;-53
2023/08/21 01:49:00;;;;;;;1.85;0.93;;;;;;;16.48;100.00;102163.66;1047930;28;20512;-55
2023/08/21 01:49:32;;;;;;;7.53;1.40;;;;;;;16.43;100.00;102162.66;1048165;28;20052;-54
2023/08/21 01:50:04;;;;;;;1.35;1.08;;;;;;;16.39;100.00;102159.59;1047389;28;20056;-55
2023/08/21 01:50:35;;;;;;;4.35;1.30;;;;;;;16.33;100.00;102158.63;1047736;28;20045;-55
2023/08/21 01:51:07;;;;;;;4.40;1.30;;;;;;;16.36;100.00;102160.88;1047711;28;20032;-54
2023/08/21 01:51:39;;;;;;;4.88;1.25;;;;;;;16.40;100.00;102163.94;1043558;28;20048;-54
2023/08/21 01:52:11;;;;;;;5.65;1.38;;;;;;;16.37;100.00;102164.38;1048066;28;20120;-54
2023/08/21 01:52:45;;;;;;;1.13;1.02;;;;;;;16.38;100.00;102168.72;1043587;28;20037;-54
2023/08/21 01:53:17;;;;;;;3.10;1.13;;;;;;;16.33;100.00;102157.81;1043564;28;20053;-54
2023/08/21 01:53:48;;;;;;;2.22;0.88;;;;;;;16.30;100.00;102159.06;1048126;28;20040;-54
2023/08/21 01:54:20;;;;;;;6.93;1.00;;;;;;;16.26;100.00;102157.06;1045489;28;20045;-54
2023/08/21 01:54:51;;;;;;;3.60;1.10;;;;;;;16.12;100.00;102155.53;1047290;28;20490;-55
2023/08/21 01:55:23;;;;;;;3.15;1.10;;;;;;;16.19;100.00;102151.75;1052032;28;20122;-55
2023/08/21 01:55:55;;;;;;;2.42;1.27;;;;;;;16.35;100.00;102161.09;1051586;28;20499;-54
2023/08/21 01:56:35;;;;;;;4.43;1.15;;;;;;;16.49;100.00;102164.50;1052473;28;20425;-54
2023/08/21 01:57:06;;;;;;;7.50;1.70;;;;;;;16.42;100.00;102163.72;1048882;28;20037;-53
2023/08/21 01:57:38;;;;;;;3.03;1.10;;;;;;;16.35;100.00;102156.53;1048198;28;20189;-54
2023/08/21 01:58:10;;;;;;;2.65;0.80;;;;;;;16.25;100.00;102158.94;1043774;28;20106;-54
2023/08/21 01:58:43;;;;;;;2.47;1.23;;;;;;;16.05;100.00;102166.34;1040780;28;20041;-53
2023/08/21 01:59:17;;;;;;;2.17;1.20;;;;;;;15.92;100.00;102161.09;1039548;28;20426;-54
2023/08/21 01:59:49;;;;;;;1.00;1.00;;;;;;;16.00;100.00;102166.19;1038644;28;20056;-53
2023/08/21 02:00:21;;;;;;;3.33;1.67;;;;;;;16.03;100.00;102157.69;1039311;28;20048;-52
2023/08/21 02:00:52;;;;;;;2.33;1.05;;;;;;;15.99;100.00;102168.06;1044392;28;20056;-53
2023/08/21 02:01:24;;;;;;;6.57;1.48;;;;;;;15.98;100.00;102163.72;1047654;28;20613;-53
2023/08/21 02:01:56;;;;;;;2.25;1.30;;;;;;;15.99;100.00;102167.22;1047754;28;20523;-53
2023/08/21 02:02:27;;;;;;;3.33;1.33;;;;;;;15.99;100.00;102169.91;1047847;28;20040;-53
2023/08/21 02:02:59;;;;;;;4.32;1.52;;;;;;;16.06;100.00;102152.69;1047553;28;20562;-53
2023/08/21 02:03:33;;;;;;;3.33;1.05;;;;;;;16.12;100.00;102155.53;1048328;28;20048;-55
2023/08/21 02:04:05;;;;;;;2.22;1.23;;;;;;;16.22;100.00;102155.88;1043684;28;20056;-54
2023/08/21 02:04:37;;;;;;;1.92;1.42;;;;;;;16.37;100.00;102154.44;1039917;28;20067;-55
2023/08/21 02:05:08;;;;;;;1.58;1.00;;;;;;;16.58;100.00;102161.28;1039559;28;20414;-54
2023/08/21 02:05:40;;;;;;;2.47;1.15;;;;;;;16.61;100.00;102155.44;1037601;28;20053;-54
2023/08/21 02:06:12;;;;;;;1.67;1.13;;;;;;;16.60;100.00;102159.19;1039425;28;20144;-54
2023/08/21 02:06:44;;;;;;;2.55;0.98;;;;;;;16.55;100.00;102158.22;1039145;28;20148;-54
2023/08/21 02:07:15;;;;;;;3.25;1.55;;;;;;;16.36;100.00;102154.66;1043768;28;20047;-54
2023/08/21 02:07:47;;;;;;;5.15;1.30;;;;;;;16.22;100.00;102159.38;1039555;28;20048;-54
2023/08/21 02:08:21;;;;;;;2.97;1.67;;;;;;;16.20;100.00;102156.09;1040192;28;20080;-55
2023/08/21 02:08:54;;;;;;;4.68;1.05;;;;;;;16.46;100.00;102156.88;1039995;28;20624;-55
2023/08/21 02:09:26;;;;;;;4.90;1.63;;;;;;;16.58;100.00;102160.44;1040306;28;20717;-54
2023/08/21 02:09:58;;;;;;;4.53;1.33;;;;;;;16.67;100.00;102156.44;1045616;28;20372;-54
2023/08/21 02:10:29;;;;;;;1.95;1.00;;;;;;;16.72;100.00;102156.63;1047769;28;20067;-53
2023/08/21 02:11:01;;;;;;;4.38;1.33;;;;;;;16.78;100.00;102154.88;1045436;28;20041;-53
2023/08/21 02:11:33;;;;;;;2.65;1.63;;;;;;;16.75;100.00;102155.34;1047636;28;20086;-53
2023/08/21 02:12:05;;;;;;;3.65;1.30;;;;;;;16.77;100.00;102154.06;1043633;28;20040;-53
2023/08/21 02:12:36;;;;;;;2.13;1.38;;;;;;;16.71;100.00;102154.13;1047542;28;20425;-53
2023/08/21 02:13:13;;;;;;;2.45;1.08;;;;;;;16.60;100.00;102145.72;1047684;28;20526;-53
2023/08/21 02:13:44;;;;;;;6.00;1.80;;;;;;;16.50;100.00;102153.50;1045224;28;20036;-53
2023/08/21 02:14:16;;;;;;;2.83;1.30;;;;;;;16.49;100.00;102151.03;1043725;28;20075;-53
2023/08/21 02:14:48;;;;;;;3.50;1.23;;;;;;;16.60;100.00;102152.97;1039295;28;20400;-53
2023/08/21 02:15:21;;;;;;;2.72;1.20;;;;;;;16.50;100.00;102150.00;1038864;28;20045;-52
2023/08/21 02:15:53;;;;;;;1.65;0.80;;;;;;;16.36;100.00;102152.81;1040056;28;20049;-53
2023/08/21 02:16:25;;;;;;;3.33;0.93;;;;;;;16.46;100.00;102156.88;1043585;28;20458;-52
2023/08/21 02:16:57;;;;;;;5.68;1.40;;;;;;;16.62;100.00;102150.88;1043483;28;20041;-53
2023/08/21 02:17:29;;;;;;;2.97;1.20;;;;;;;16.63;100.00;102163.28;1041548;28;20049;-53
2023/08/21 02:18:01;;;;;;;5.13;2.20;;;;;;;16.69;100.00;102157.84;1044476;28;20055;-53
2023/08/21 02:18:33;;;;;;;2.28;1.38;;;;;;;16.66;100.00;102157.47;1041335;28;20045;-55
2023/08/21 02:19:05;;;;;;;1.67;1.30;;;;;;;16.59;100.00;102152.16;1044489;28;20044;-51
2023/08/21 02:19:38;;;;;;;2.17;1.20;;;;;;;16.18;100.00;102155.50;1043624;28;20458;-53
2023/08/21 02:20:10;;;;;;;3.78;1.55;;;;;;;16.02;100.00;102156.03;1041934;28;20046;-52
2023/08/21 02:20:43;;;;;;;2.10;1.10;;;;;;;16.28;100.00;102157.66;1043399;28;20045;-52
2023/08/21 02:21:23;;;;;;;1.05;0.90;;;;;;;16.42;100.00;102152.97;1044012;28;20465;-54
2023/08/21 02:21:58;;;;;;;1.77;1.23;;;;;;;16.39;100.00;102155.03;1039230;28;20040;-53
2023/08/21 02:22:30;;;;;;;1.40;1.30;;;;;;;16.17;100.00;102156.53;1041493;28;20506;-52
2023/08/21 02:23:01;;;;;;;3.03;2.20;;;;;;;15.94;100.00;102153.63;1043732;28;20123;-53
2023/08/21 02:23:33;;;;;;;2.17;1.35;;;;;;;16.12;100.00;102156.34;1044091;28;20029;-53
2023/08/21 02:24:04;;;;;;;4.72;1.50;;;;;;;16.07;100.00;102153.50;1047992;28;20036;-54
2023/08/21 02:24:36;;;;;;;3.13;1.02;;;;;;;15.97;100.00;102158.56;1048086;28;20053;-53
2023/08/21 02:25:08;;;;;;;3.10;1.30;;;;;;;16.08;100.00;102169.41;1047293;28;20048;-52
2023/08/21 02:25:40;;;;;;;2.05;1.20;;;;;;;16.08;100.00;102149.78;1047669;28;20045;-53
2023/08/21 02:26:11;;;;;;;4.45;1.30;;;;;;;15.94;100.00;102154.44;1047459;28;20117;-53
2023/08/21 02:26:45;;;;;;;1.60;0.85;;;;;;;15.76;100.00;102163.25;1047130;28;20551;-52
2023/08/21 02:27:18;;;;;;;1.30;1.00;;;;;;;15.80;100.00;102165.50;1039850;28;20057;-52
2023/08/21 02:27:51;;;;;;;1.35;1.20;;;;;;;15.81;100.00;102161.78;1040173;28;20128;-53
2023/08/21 02:28:23;;;;;;;2.55;1.45;;;;;;;15.91;100.00;102165.66;1040323;28;20038;-53
2023/08/21 02:28:54;;;;;;;3.97;1.35;;;;;;;15.95;100.00;102169.53;1044762;28;20255;-54
2023/08/21 02:29:26;;;;;;;2.97;1.40;;;;;;;16.00;100.00;102164.31;1044974;28;20070;-54
2023/08/21 02:29:57;;;;;;;6.50;1.60;;;;;;;16.01;100.00;102167.81;1047596;28;20041;-55
2023/08/21 02:30:29;;;;;;;3.85;1.63;;;;;;;16.12;100.00;102171.66;1048869;28;20425;-53
2023/08/21 02:31:01;;;;;;;1.33;1.10;;;;;;;16.25;100.00;102167.00;1047578;28;20044;-53
2023/08/21 02:31:33;;;;;;;4.38;1.40;;;;;;;16.36;100.00;102168.94;1047575;28;20051;-52
2023/08/21 02:32:04;;;;;;;3.42;1.10;;;;;;;16.27;100.00;102164.09;1047602;28;20050;-53